Terminal Aerodrome Forecast
Issued by NWS Pendleton, OR

Home | Current Version | Previous Version | Text Only | Print | Product List | Glossary On
Versions: 1 2 3 4 5 6 7 8 9 10 11 12 13 14
000
FTUS46 KPDT 011732
TAFPDT
TAF
KPDT 011732Z 0118/0218 24008KT P6SM SKC
     FM012000 27012G20KT P6SM SCT250
     FM020300 26011KT P6SM SCT070 BKN200
     FM020800 24010KT P6SM BKN060 BKN150
     FM021500 25011KT P6SM VCSH BKN050=

USA.gov is the U.S. government's official web portal to all federal, state and local government web resources and services.